sensor_id;sensor_type;location;lat;lon;timestamp;P1;durP1;ratioP1;P2;durP2;ratioP2
71655;SDS011;59497;48.798;8.816;2023-02-08T16:29:29;12.27;;;4.40;;
71655;SDS011;59497;48.798;8.816;2023-02-08T16:31:56;10.45;;;5.45;;
71655;SDS011;59497;48.798;8.816;2023-02-08T16:34:21;16.60;;;6.93;;
71655;SDS011;59497;48.798;8.816;2023-02-08T16:36:48;16.05;;;5.82;;
71655;SDS011;59497;48.798;8.816;2023-02-08T16:44:15;13.27;;;5.28;;
71655;SDS011;59497;48.798;8.816;2023-02-08T16:46:43;11.52;;;5.40;;
71655;SDS011;59497;48.798;8.816;2023-02-08T16:49:09;11.10;;;5.03;;
71655;SDS011;59497;48.798;8.816;2023-02-08T16:51:34;12.38;;;5.90;;
71655;SDS011;59497;48.798;8.816;2023-02-08T16:54:04;15.82;;;8.48;;
71655;SDS011;59497;48.798;8.816;2023-02-08T16:56:36;16.13;;;7.38;;
71655;SDS011;59497;48.798;8.816;2023-02-08T16:59:01;12.37;;;6.43;;
71655;SDS011;59497;48.798;8.816;2023-02-08T17:01:26;13.00;;;6.93;;
71655;SDS011;59497;48.798;8.816;2023-02-08T17:03:52;16.38;;;6.40;;
71655;SDS011;59497;48.798;8.816;2023-02-08T17:06:23;15.43;;;7.17;;
71655;SDS011;59497;48.798;8.816;2023-02-08T17:08:50;15.68;;;6.65;;
71655;SDS011;59497;48.798;8.816;2023-02-08T17:11:15;18.50;;;7.70;;
71655;SDS011;59497;48.798;8.816;2023-02-08T17:13:40;16.40;;;8.15;;
71655;SDS011;59497;48.798;8.816;2023-02-08T17:16:05;15.50;;;7.60;;
71655;SDS011;59497;48.798;8.816;2023-02-08T17:18:30;17.57;;;8.23;;
71655;SDS011;59497;48.798;8.816;2023-02-08T17:20:56;20.83;;;8.43;;
71655;SDS011;59497;48.798;8.816;2023-02-08T17:23:23;20.45;;;8.25;;
71655;SDS011;59497;48.798;8.816;2023-02-08T17:25:49;20.33;;;8.80;;
71655;SDS011;59497;48.798;8.816;2023-02-08T17:28:15;19.73;;;8.43;;
71655;SDS011;59497;48.798;8.816;2023-02-08T17:30:41;22.00;;;9.88;;
71655;SDS011;59497;48.798;8.816;2023-02-08T17:33:08;17.80;;;8.80;;
71655;SDS011;59497;48.798;8.816;2023-02-08T17:35:35;17.90;;;7.78;;
71655;SDS011;59497;48.798;8.816;2023-02-08T17:38:02;21.58;;;10.15;;
71655;SDS011;59497;48.798;8.816;2023-02-08T17:40:33;22.50;;;10.15;;
71655;SDS011;59497;48.798;8.816;2023-02-08T17:42:59;23.15;;;10.52;;
71655;SDS011;59497;48.798;8.816;2023-02-08T17:45:25;23.87;;;10.43;;
71655;SDS011;59497;48.798;8.816;2023-02-08T17:47:50;19.07;;;9.57;;
71655;SDS011;59497;48.798;8.816;2023-02-08T17:50:16;21.07;;;9.47;;
71655;SDS011;59497;48.798;8.816;2023-02-08T17:52:42;16.23;;;8.60;;
71655;SDS011;59497;48.798;8.816;2023-02-08T17:55:08;21.00;;;8.68;;
71655;SDS011;59497;48.798;8.816;2023-02-08T17:57:35;24.37;;;10.83;;
71655;SDS011;59497;48.798;8.816;2023-02-08T18:00:02;31.52;;;13.50;;
71655;SDS011;59497;48.798;8.816;2023-02-08T18:02:27;25.88;;;12.00;;
71655;SDS011;59497;48.798;8.816;2023-02-08T18:04:53;22.43;;;11.00;;
71655;SDS011;59497;48.798;8.816;2023-02-08T18:07:18;23.90;;;11.25;;
71655;SDS011;59497;48.798;8.816;2023-02-08T18:09:44;23.85;;;10.88;;
71655;SDS011;59497;48.798;8.816;2023-02-08T18:12:09;24.35;;;11.65;;
71655;SDS011;59497;48.798;8.816;2023-02-08T18:14:35;27.60;;;11.10;;
71655;SDS011;59497;48.798;8.816;2023-02-08T18:17:00;22.33;;;10.60;;
71655;SDS011;59497;48.798;8.816;2023-02-08T18:19:26;20.67;;;10.07;;
71655;SDS011;59497;48.798;8.816;2023-02-08T18:21:51;22.58;;;10.43;;
71655;SDS011;59497;48.798;8.816;2023-02-08T18:24:16;19.67;;;10.20;;
71655;SDS011;59497;48.798;8.816;2023-02-08T18:26:42;18.30;;;8.47;;
71655;SDS011;59497;48.798;8.816;2023-02-08T18:29:07;21.40;;;9.40;;
71655;SDS011;59497;48.798;8.816;2023-02-08T18:31:33;17.83;;;8.57;;
71655;SDS011;59497;48.798;8.816;2023-02-08T18:33:58;22.87;;;9.13;;
71655;SDS011;59497;48.798;8.816;2023-02-08T18:36:23;23.57;;;9.20;;
71655;SDS011;59497;48.798;8.816;2023-02-08T18:38:50;25.48;;;10.35;;
71655;SDS011;59497;48.798;8.816;2023-02-08T18:41:18;22.67;;;9.85;;
71655;SDS011;59497;48.798;8.816;2023-02-08T18:43:45;21.67;;;10.93;;
71655;SDS011;59497;48.798;8.816;2023-02-08T18:46:11;24.63;;;10.87;;
71655;SDS011;59497;48.798;8.816;2023-02-08T18:48:37;22.45;;;10.27;;
71655;SDS011;59497;48.798;8.816;2023-02-08T18:51:03;20.90;;;9.87;;
71655;SDS011;59497;48.798;8.816;2023-02-08T18:53:29;24.25;;;11.30;;
71655;SDS011;59497;48.798;8.816;2023-02-08T18:55:55;23.73;;;11.57;;
71655;SDS011;59497;48.798;8.816;2023-02-08T18:58:20;24.90;;;11.20;;
71655;SDS011;59497;48.798;8.816;2023-02-08T19:00:45;22.37;;;10.30;;
71655;SDS011;59497;48.798;8.816;2023-02-08T19:03:11;25.97;;;11.70;;
71655;SDS011;59497;48.798;8.816;2023-02-08T19:05:36;27.83;;;11.40;;
71655;SDS011;59497;48.798;8.816;2023-02-08T19:08:02;22.73;;;9.85;;
71655;SDS011;59497;48.798;8.816;2023-02-08T19:10:27;23.87;;;10.03;;
71655;SDS011;59497;48.798;8.816;2023-02-08T19:12:52;22.43;;;9.90;;
71655;SDS011;59497;48.798;8.816;2023-02-08T19:15:17;26.30;;;10.60;;
71655;SDS011;59497;48.798;8.816;2023-02-08T19:17:42;24.00;;;10.03;;
71655;SDS011;59497;48.798;8.816;2023-02-08T19:20:08;26.37;;;10.97;;
71655;SDS011;59497;48.798;8.816;2023-02-08T19:22:33;24.57;;;11.13;;
71655;SDS011;59497;48.798;8.816;2023-02-08T19:24:58;24.67;;;10.23;;
71655;SDS011;59497;48.798;8.816;2023-02-08T19:27:26;24.50;;;10.65;;
71655;SDS011;59497;48.798;8.816;2023-02-08T19:29:51;27.67;;;11.70;;
71655;SDS011;59497;48.798;8.816;2023-02-08T19:32:20;22.35;;;10.35;;
71655;SDS011;59497;48.798;8.816;2023-02-08T19:34:45;25.50;;;11.77;;
71655;SDS011;59497;48.798;8.816;2023-02-08T19:37:10;29.03;;;12.57;;
71655;SDS011;59497;48.798;8.816;2023-02-08T19:39:35;32.00;;;13.53;;
71655;SDS011;59497;48.798;8.816;2023-02-08T19:42:00;27.70;;;12.10;;
71655;SDS011;59497;48.798;8.816;2023-02-08T19:44:26;32.57;;;12.80;;
71655;SDS011;59497;48.798;8.816;2023-02-08T19:46:52;31.47;;;12.67;;
71655;SDS011;59497;48.798;8.816;2023-02-08T19:49:17;31.30;;;12.55;;
71655;SDS011;59497;48.798;8.816;2023-02-08T19:51:43;27.50;;;12.07;;
71655;SDS011;59497;48.798;8.816;2023-02-08T19:54:10;29.93;;;13.07;;
71655;SDS011;59497;48.798;8.816;2023-02-08T19:56:37;30.17;;;12.98;;
71655;SDS011;59497;48.798;8.816;2023-02-08T19:59:03;27.87;;;11.63;;
71655;SDS011;59497;48.798;8.816;2023-02-08T20:01:29;26.05;;;11.07;;
71655;SDS011;59497;48.798;8.816;2023-02-08T20:03:54;27.50;;;11.90;;
71655;SDS011;59497;48.798;8.816;2023-02-08T20:06:21;25.30;;;10.93;;
71655;SDS011;59497;48.798;8.816;2023-02-08T20:08:47;28.40;;;11.65;;
71655;SDS011;59497;48.798;8.816;2023-02-08T20:11:16;28.08;;;11.52;;
71655;SDS011;59497;48.798;8.816;2023-02-08T20:13:42;26.30;;;11.18;;
71655;SDS011;59497;48.798;8.816;2023-02-08T20:16:07;22.93;;;10.40;;
71655;SDS011;59497;48.798;8.816;2023-02-08T20:18:32;27.13;;;11.80;;
71655;SDS011;59497;48.798;8.816;2023-02-08T20:20:58;28.30;;;11.40;;
71655;SDS011;59497;48.798;8.816;2023-02-08T20:23:25;28.13;;;12.17;;
71655;SDS011;59497;48.798;8.816;2023-02-08T20:25:50;30.10;;;12.20;;
71655;SDS011;59497;48.798;8.816;2023-02-08T20:28:15;28.73;;;12.67;;
71655;SDS011;59497;48.798;8.816;2023-02-08T20:30:40;27.07;;;11.73;;
71655;SDS011;59497;48.798;8.816;2023-02-08T20:33:05;27.10;;;11.63;;
71655;SDS011;59497;48.798;8.816;2023-02-08T20:35:30;31.03;;;11.83;;
71655;SDS011;59497;48.798;8.816;2023-02-08T20:37:56;30.13;;;12.73;;
71655;SDS011;59497;48.798;8.816;2023-02-08T20:40:21;27.80;;;11.77;;
71655;SDS011;59497;48.798;8.816;2023-02-08T20:42:46;28.33;;;12.00;;
71655;SDS011;59497;48.798;8.816;2023-02-08T20:45:13;30.52;;;12.32;;
71655;SDS011;59497;48.798;8.816;2023-02-08T20:47:38;28.63;;;10.30;;
71655;SDS011;59497;48.798;8.816;2023-02-08T20:50:07;25.30;;;10.90;;
71655;SDS011;59497;48.798;8.816;2023-02-08T20:52:32;26.58;;;11.32;;
71655;SDS011;59497;48.798;8.816;2023-02-08T20:54:57;27.57;;;11.23;;
71655;SDS011;59497;48.798;8.816;2023-02-08T20:57:23;25.20;;;11.03;;
71655;SDS011;59497;48.798;8.816;2023-02-08T20:59:49;27.88;;;12.15;;
71655;SDS011;59497;48.798;8.816;2023-02-08T21:02:15;29.27;;;11.73;;
71655;SDS011;59497;48.798;8.816;2023-02-08T21:04:41;31.55;;;13.32;;
71655;SDS011;59497;48.798;8.816;2023-02-08T21:07:06;29.80;;;12.63;;
71655;SDS011;59497;48.798;8.816;2023-02-08T21:09:31;27.97;;;11.73;;
71655;SDS011;59497;48.798;8.816;2023-02-08T21:11:56;26.57;;;12.40;;
71655;SDS011;59497;48.798;8.816;2023-02-08T21:14:21;29.77;;;12.88;;
71655;SDS011;59497;48.798;8.816;2023-02-08T21:16:47;37.13;;;12.93;;
71655;SDS011;59497;48.798;8.816;2023-02-08T21:19:13;31.02;;;13.27;;
71655;SDS011;59497;48.798;8.816;2023-02-08T21:21:39;33.27;;;12.97;;
71655;SDS011;59497;48.798;8.816;2023-02-08T21:24:05;27.52;;;11.88;;
71655;SDS011;59497;48.798;8.816;2023-02-08T21:26:32;28.30;;;12.70;;
71655;SDS011;59497;48.798;8.816;2023-02-08T21:28:57;31.87;;;13.03;;
71655;SDS011;59497;48.798;8.816;2023-02-08T21:31:23;31.17;;;12.70;;
71655;SDS011;59497;48.798;8.816;2023-02-08T21:33:49;30.33;;;12.70;;
71655;SDS011;59497;48.798;8.816;2023-02-08T21:36:15;30.90;;;13.05;;
71655;SDS011;59497;48.798;8.816;2023-02-08T21:38:41;32.30;;;13.40;;
71655;SDS011;59497;48.798;8.816;2023-02-08T21:41:11;30.65;;;13.35;;
71655;SDS011;59497;48.798;8.816;2023-02-08T21:43:38;30.50;;;12.93;;
71655;SDS011;59497;48.798;8.816;2023-02-08T21:46:04;31.00;;;12.33;;
71655;SDS011;59497;48.798;8.816;2023-02-08T21:48:29;29.83;;;12.80;;
71655;SDS011;59497;48.798;8.816;2023-02-08T21:50:54;29.17;;;12.40;;
71655;SDS011;59497;48.798;8.816;2023-02-08T21:53:41;25.92;;;11.85;;
71655;SDS011;59497;48.798;8.816;2023-02-08T21:56:25;30.08;;;12.10;;
71655;SDS011;59497;48.798;8.816;2023-02-08T21:58:50;32.07;;;12.60;;
71655;SDS011;59497;48.798;8.816;2023-02-08T22:01:15;37.63;;;14.07;;
71655;SDS011;59497;48.798;8.816;2023-02-08T22:03:41;35.65;;;13.30;;
71655;SDS011;59497;48.798;8.816;2023-02-08T22:06:06;44.30;;;15.82;;
71655;SDS011;59497;48.798;8.816;2023-02-08T22:08:31;33.83;;;14.10;;
71655;SDS011;59497;48.798;8.816;2023-02-08T22:10:56;36.63;;;14.83;;
71655;SDS011;59497;48.798;8.816;2023-02-08T22:13:28;32.00;;;13.03;;
71655;SDS011;59497;48.798;8.816;2023-02-08T22:15:53;39.20;;;13.67;;
71655;SDS011;59497;48.798;8.816;2023-02-08T22:18:18;28.40;;;12.60;;
71655;SDS011;59497;48.798;8.816;2023-02-08T22:20:43;30.93;;;13.23;;
71655;SDS011;59497;48.798;8.816;2023-02-08T22:23:08;35.07;;;13.30;;
71655;SDS011;59497;48.798;8.816;2023-02-08T22:25:34;30.57;;;12.53;;
71655;SDS011;59497;48.798;8.816;2023-02-08T22:27:59;33.30;;;13.70;;
71655;SDS011;59497;48.798;8.816;2023-02-08T22:30:24;33.47;;;12.00;;
71655;SDS011;59497;48.798;8.816;2023-02-08T22:32:49;33.27;;;12.77;;
71655;SDS011;59497;48.798;8.816;2023-02-08T22:35:15;30.20;;;11.13;;
71655;SDS011;59497;48.798;8.816;2023-02-08T22:37:40;33.75;;;12.98;;
71655;SDS011;59497;48.798;8.816;2023-02-08T22:40:06;30.70;;;12.07;;
71655;SDS011;59497;48.798;8.816;2023-02-08T22:42:32;30.27;;;11.77;;
71655;SDS011;59497;48.798;8.816;2023-02-08T22:44:57;27.90;;;10.57;;
71655;SDS011;59497;48.798;8.816;2023-02-08T22:47:22;25.23;;;10.43;;
71655;SDS011;59497;48.798;8.816;2023-02-08T22:49:48;24.13;;;10.03;;
71655;SDS011;59497;48.798;8.816;2023-02-08T22:52:13;27.17;;;11.07;;
71655;SDS011;59497;48.798;8.816;2023-02-08T22:54:39;27.67;;;11.43;;
71655;SDS011;59497;48.798;8.816;2023-02-08T22:57:04;26.30;;;10.90;;
71655;SDS011;59497;48.798;8.816;2023-02-08T22:59:33;27.23;;;11.07;;
71655;SDS011;59497;48.798;8.816;2023-02-08T23:01:59;27.52;;;12.75;;
71655;SDS011;59497;48.798;8.816;2023-02-08T23:04:25;30.73;;;12.80;;
71655;SDS011;59497;48.798;8.816;2023-02-08T23:06:50;28.17;;;13.43;;
71655;SDS011;59497;48.798;8.816;2023-02-08T23:09:16;27.07;;;11.63;;
71655;SDS011;59497;48.798;8.816;2023-02-08T23:11:41;30.48;;;13.07;;
71655;SDS011;59497;48.798;8.816;2023-02-08T23:14:06;36.43;;;15.90;;
71655;SDS011;59497;48.798;8.816;2023-02-08T23:16:31;38.13;;;14.70;;
71655;SDS011;59497;48.798;8.816;2023-02-08T23:18:56;35.10;;;15.43;;
71655;SDS011;59497;48.798;8.816;2023-02-08T23:21:22;35.97;;;16.40;;
71655;SDS011;59497;48.798;8.816;2023-02-08T23:23:47;34.67;;;14.37;;
71655;SDS011;59497;48.798;8.816;2023-02-08T23:26:15;32.40;;;12.77;;
71655;SDS011;59497;48.798;8.816;2023-02-08T23:28:41;27.17;;;12.25;;
71655;SDS011;59497;48.798;8.816;2023-02-08T23:31:07;28.17;;;11.57;;
71655;SDS011;59497;48.798;8.816;2023-02-08T23:33:32;29.50;;;11.60;;
71655;SDS011;59497;48.798;8.816;2023-02-08T23:35:58;25.90;;;10.53;;
71655;SDS011;59497;48.798;8.816;2023-02-08T23:38:23;28.30;;;12.03;;
71655;SDS011;59497;48.798;8.816;2023-02-08T23:40:48;25.13;;;10.23;;
71655;SDS011;59497;48.798;8.816;2023-02-08T23:43:13;24.80;;;10.80;;
71655;SDS011;59497;48.798;8.816;2023-02-08T23:45:38;24.73;;;10.70;;
71655;SDS011;59497;48.798;8.816;2023-02-08T23:48:03;25.03;;;10.83;;
71655;SDS011;59497;48.798;8.816;2023-02-08T23:50:29;25.33;;;10.30;;
71655;SDS011;59497;48.798;8.816;2023-02-08T23:52:54;25.33;;;10.50;;
71655;SDS011;59497;48.798;8.816;2023-02-08T23:55:20;27.00;;;10.43;;
71655;SDS011;59497;48.798;8.816;2023-02-08T23:57:45;28.20;;;11.17;;
